createdAt,value
2022-08-19T00:01:37.953Z,16.80
2022-08-19T00:04:22.556Z,16.70
2022-08-19T00:07:02.965Z,16.70
2022-08-19T00:09:38.616Z,16.60
2022-08-19T00:12:16.249Z,16.60
2022-08-19T00:14:51.708Z,16.60
2022-08-19T00:17:30.468Z,16.60
2022-08-19T00:20:07.293Z,16.60
2022-08-19T00:22:46.568Z,16.50
2022-08-19T00:25:30.079Z,16.50
2022-08-19T00:28:08.039Z,16.50
2022-08-19T00:30:44.302Z,16.50
2022-08-19T00:33:22.307Z,16.50
2022-08-19T00:36:01.565Z,16.50
2022-08-19T00:38:38.253Z,16.60
2022-08-19T00:41:15.955Z,16.60
2022-08-19T00:44:07.647Z,16.70
2022-08-19T00:46:45.753Z,16.70
2022-08-19T00:49:40.592Z,16.80
2022-08-19T00:52:21.304Z,16.90
2022-08-19T00:54:59.042Z,17.00
2022-08-19T00:57:40.451Z,17.00
2022-08-19T01:00:20.045Z,17.20
2022-08-19T01:02:58.162Z,17.30
2022-08-19T01:05:36.478Z,17.40
2022-08-19T01:08:14.893Z,17.50
2022-08-19T01:10:53.265Z,17.60
2022-08-19T01:13:49.463Z,17.60
2022-08-19T01:16:31.339Z,17.60
2022-08-19T01:19:09.140Z,17.60
2022-08-19T01:21:51.340Z,17.70
2022-08-19T01:24:33.554Z,17.90
2022-08-19T01:27:13.635Z,18.00
2022-08-19T01:29:50.893Z,18.10
2022-08-19T01:32:33.813Z,18.20
2022-08-19T01:35:11.702Z,18.30
2022-08-19T01:37:53.468Z,18.40
2022-08-19T01:40:37.969Z,18.40
2022-08-19T01:43:14.726Z,18.50
2022-08-19T01:45:50.875Z,18.60
2022-08-19T01:48:28.321Z,18.70
2022-08-19T01:51:05.579Z,18.70
2022-08-19T01:53:43.396Z,18.80
2022-08-19T01:56:22.689Z,18.90
2022-08-19T01:59:03.735Z,18.90
2022-08-19T02:01:39.908Z,19.00
2022-08-19T02:04:17.345Z,19.10
2022-08-19T02:06:55.435Z,19.30
2022-08-19T02:09:31.287Z,19.30
2022-08-19T02:12:10.432Z,19.30
2022-08-19T02:14:46.780Z,19.30
2022-08-19T02:17:23.368Z,19.20
2022-08-19T02:19:59.116Z,19.10
2022-08-19T02:22:36.384Z,19.00
2022-08-19T02:25:16.667Z,19.00
2022-08-19T02:27:54.805Z,19.00
2022-08-19T02:30:32.820Z,19.00
2022-08-19T02:33:09.189Z,19.00
2022-08-19T02:35:49.449Z,19.00
2022-08-19T02:38:32.460Z,19.00
2022-08-19T02:41:12.774Z,19.00
2022-08-19T02:44:28.808Z,19.00
2022-08-19T02:46:54.540Z,19.10
2022-08-19T02:49:34.667Z,19.20
2022-08-19T02:52:15.203Z,19.30
2022-08-19T02:54:51.101Z,19.50
2022-08-19T02:57:27.421Z,19.60
2022-08-19T03:00:07.725Z,19.70
2022-08-19T03:02:45.134Z,19.90
2022-08-19T03:05:46.866Z,20.00
2022-08-19T03:18:00.852Z,19.60
2022-08-19T03:20:39.577Z,19.60
2022-08-19T03:23:15.654Z,19.70
2022-08-19T03:26:03.282Z,19.60
2022-08-19T03:28:58.670Z,19.50
2022-08-19T03:31:44.320Z,19.50
2022-08-19T03:34:32.170Z,19.50
2022-08-19T03:37:12.043Z,19.50
2022-08-19T03:39:49.267Z,19.50
2022-08-19T03:42:38.705Z,19.50
2022-08-19T03:45:24.098Z,19.80
2022-08-19T03:48:02.355Z,20.10
2022-08-19T03:50:45.809Z,20.40
2022-08-19T03:53:22.732Z,20.60
2022-08-19T03:55:59.743Z,20.60
2022-08-19T03:58:37.472Z,20.40
2022-08-19T04:01:17.658Z,20.30
2022-08-19T04:03:57.763Z,20.20
2022-08-19T04:06:39.535Z,20.10
2022-08-19T04:09:16.746Z,20.00
2022-08-19T04:11:58.574Z,19.90
2022-08-19T04:14:36.517Z,19.90
2022-08-19T04:17:15.671Z,19.80
2022-08-19T04:19:51.469Z,19.80
2022-08-19T04:22:30.255Z,19.70
2022-08-19T04:25:06.505Z,19.70
2022-08-19T04:27:49.115Z,19.60
2022-08-19T04:30:26.607Z,19.50
2022-08-19T04:33:03.126Z,19.50
2022-08-19T04:35:44.814Z,19.50
2022-08-19T04:38:25.127Z,19.50
2022-08-19T04:41:18.467Z,19.70
2022-08-19T04:43:56.044Z,19.80
2022-08-19T04:46:39.365Z,19.70
2022-08-19T04:49:17.339Z,19.70
2022-08-19T04:51:56.905Z,19.70
2022-08-19T04:54:38.389Z,19.50
2022-08-19T04:57:17.305Z,19.40
2022-08-19T04:59:59.424Z,19.30
2022-08-19T05:02:36.908Z,19.30
2022-08-19T05:05:15.407Z,19.20
2022-08-19T05:07:52.218Z,19.20
2022-08-19T05:10:33.299Z,19.20
2022-08-19T05:13:13.651Z,19.20
2022-08-19T05:15:58.858Z,19.10
2022-08-19T05:18:52.249Z,19.10
2022-08-19T05:21:45.818Z,19.10
2022-08-19T05:24:22.657Z,19.00
2022-08-19T05:27:03.536Z,18.90
2022-08-19T05:29:41.806Z,18.80
2022-08-19T05:32:19.189Z,18.70
2022-08-19T05:34:55.532Z,18.70
2022-08-19T05:37:33.202Z,18.60
2022-08-19T05:40:10.443Z,18.60
2022-08-19T05:42:55.141Z,18.60
2022-08-19T05:45:34.525Z,18.60
2022-08-19T05:48:13.811Z,18.60
2022-08-19T05:50:52.969Z,18.60
2022-08-19T05:53:30.491Z,18.60
2022-08-19T05:56:11.020Z,18.60
2022-08-19T05:58:53.744Z,18.60
2022-08-19T06:01:33.682Z,18.60
2022-08-19T06:04:10.406Z,18.60
2022-08-19T06:06:48.863Z,18.60
2022-08-19T06:09:25.336Z,18.60
2022-08-19T06:12:08.761Z,18.50
2022-08-19T06:14:47.180Z,18.50
2022-08-19T06:17:38.498Z,18.40
2022-08-19T06:20:16.450Z,18.30
2022-08-19T06:22:57.694Z,18.30
2022-08-19T06:25:33.964Z,18.20
2022-08-19T06:28:15.068Z,18.20
2022-08-19T06:30:55.092Z,18.20
2022-08-19T06:33:32.851Z,18.10
2022-08-19T06:36:09.309Z,18.00
2022-08-19T06:38:46.553Z,17.80
2022-08-19T06:41:23.906Z,17.60
2022-08-19T06:44:03.508Z,17.40
2022-08-19T06:46:45.616Z,17.10
2022-08-19T06:52:10.583Z,17.00
2022-08-19T07:10:55.664Z,16.20
2022-08-19T07:13:32.519Z,16.20
2022-08-19T07:16:16.388Z,16.10
2022-08-19T07:19:11.836Z,16.00
2022-08-19T07:21:55.731Z,16.00
2022-08-19T07:24:33.591Z,15.90
2022-08-19T07:27:15.597Z,15.90
2022-08-19T07:29:55.838Z,15.80
2022-08-19T07:32:36.043Z,15.80
2022-08-19T07:35:15.095Z,15.80
2022-08-19T07:37:52.038Z,15.80
2022-08-19T07:40:28.243Z,15.80
2022-08-19T07:43:05.249Z,15.80
2022-08-19T07:45:43.212Z,15.70
2022-08-19T07:48:19.984Z,15.70
2022-08-19T07:50:59.637Z,15.70
2022-08-19T07:53:39.789Z,15.80
2022-08-19T07:56:16.968Z,15.70
2022-08-19T08:01:33.644Z,15.80
2022-08-19T08:04:35.122Z,15.80
2022-08-19T08:07:31.544Z,15.80
2022-08-19T08:10:12.642Z,15.80
2022-08-19T08:13:09.682Z,15.80
2022-08-19T08:15:47.267Z,15.80
2022-08-19T08:18:27.503Z,15.80
2022-08-19T08:21:04.862Z,15.80
2022-08-19T08:23:45.748Z,15.70
2022-08-19T08:26:22.460Z,15.80
2022-08-19T08:28:59.237Z,15.70
2022-08-19T08:31:36.416Z,15.60
2022-08-19T08:34:14.182Z,15.70
2022-08-19T08:36:54.443Z,15.70
2022-08-19T08:39:33.364Z,15.60
2022-08-19T08:42:18.987Z,15.60
2022-08-19T08:45:01.322Z,15.60
2022-08-19T08:47:42.037Z,15.50
2022-08-19T08:50:26.577Z,15.50
2022-08-19T08:53:04.732Z,15.50
2022-08-19T08:55:43.514Z,15.40
2022-08-19T08:58:30.149Z,15.40
2022-08-19T09:01:07.374Z,15.30
2022-08-19T09:03:48.044Z,15.30
2022-08-19T09:06:34.648Z,15.40
2022-08-19T09:09:18.701Z,15.30
2022-08-19T09:12:03.459Z,15.30
2022-08-19T09:14:51.814Z,15.30
2022-08-19T09:17:36.690Z,15.20
2022-08-19T09:20:26.479Z,15.30
2022-08-19T09:23:04.013Z,15.30
2022-08-19T09:25:42.775Z,15.20
2022-08-19T09:28:22.443Z,15.40
2022-08-19T09:31:05.798Z,15.30
2022-08-19T09:33:48.107Z,15.30
2022-08-19T09:36:31.297Z,15.20
2022-08-19T09:39:16.177Z,15.20
2022-08-19T09:41:53.792Z,15.20
2022-08-19T09:44:31.809Z,15.10
2022-08-19T09:47:09.607Z,15.10
2022-08-19T09:49:46.170Z,15.10
2022-08-19T09:52:22.732Z,15.10
2022-08-19T09:55:07.210Z,15.10
2022-08-19T09:57:45.489Z,15.10
2022-08-19T10:00:25.554Z,15.10
2022-08-19T10:03:03.547Z,15.10
2022-08-19T10:05:55.572Z,15.10
2022-08-19T10:08:34.008Z,15.10
2022-08-19T10:11:28.356Z,15.10
2022-08-19T10:14:10.894Z,15.10
2022-08-19T10:16:50.073Z,15.00
2022-08-19T10:19:29.665Z,15.00
2022-08-19T10:22:12.336Z,15.00
2022-08-19T10:24:52.133Z,14.90
2022-08-19T10:27:29.068Z,14.90
2022-08-19T10:30:09.996Z,14.90
2022-08-19T10:33:01.692Z,14.90
2022-08-19T10:35:57.475Z,14.90
2022-08-19T10:38:37.326Z,14.90
2022-08-19T10:41:17.564Z,14.90
2022-08-19T10:43:58.239Z,14.80
2022-08-19T10:46:48.904Z,14.80
2022-08-19T10:49:29.100Z,14.80
2022-08-19T10:52:24.827Z,14.80
2022-08-19T10:55:29.236Z,14.80
2022-08-19T10:58:08.149Z,14.80
2022-08-19T11:00:47.225Z,14.80
2022-08-19T11:03:27.022Z,14.80
2022-08-19T11:06:12.920Z,14.80
2022-08-19T11:08:50.955Z,14.80
2022-08-19T11:11:27.638Z,14.70
2022-08-19T11:14:04.709Z,14.70
2022-08-19T11:16:43.945Z,14.70
2022-08-19T11:19:24.319Z,14.70
2022-08-19T11:22:04.619Z,14.70
2022-08-19T11:24:41.178Z,14.70
2022-08-19T11:27:17.844Z,14.70
2022-08-19T11:29:55.555Z,14.70
2022-08-19T11:32:32.109Z,14.60
2022-08-19T11:35:08.803Z,14.60
2022-08-19T11:37:48.740Z,14.60
2022-08-19T11:40:27.087Z,14.60
2022-08-19T11:43:06.191Z,14.50
2022-08-19T11:45:44.165Z,14.50
2022-08-19T11:48:25.801Z,14.50
2022-08-19T11:51:02.121Z,14.50
2022-08-19T11:53:40.678Z,14.50
2022-08-19T11:56:17.800Z,14.50
2022-08-19T11:58:55.367Z,14.50
2022-08-19T12:01:34.048Z,14.50
2022-08-19T12:04:13.442Z,14.50
2022-08-19T12:06:49.437Z,14.50
2022-08-19T12:09:27.444Z,14.40
2022-08-19T12:12:08.418Z,14.40
2022-08-19T12:14:45.330Z,14.40
2022-08-19T12:17:25.447Z,14.40
2022-08-19T12:24:29.317Z,14.40
2022-08-19T12:27:13.524Z,14.40
2022-08-19T12:30:16.313Z,14.30
2022-08-19T12:32:54.524Z,14.30
2022-08-19T12:35:33.954Z,14.30
2022-08-19T12:38:12.983Z,14.30
2022-08-19T12:40:59.642Z,14.30
2022-08-19T12:43:43.230Z,14.30
2022-08-19T12:55:04.335Z,14.30
2022-08-19T12:57:43.220Z,14.30
2022-08-19T13:04:45.826Z,14.30
2022-08-19T13:07:24.136Z,14.30
2022-08-19T13:10:03.576Z,14.30
2022-08-19T13:12:44.487Z,14.30
2022-08-19T13:15:26.450Z,14.30
2022-08-19T13:18:06.190Z,14.30
2022-08-19T13:20:52.735Z,14.30
2022-08-19T13:23:30.699Z,14.40
2022-08-19T13:26:11.302Z,14.30
2022-08-19T13:29:05.341Z,14.30
2022-08-19T13:32:04.848Z,14.30
2022-08-19T13:34:43.873Z,14.30
2022-08-19T13:37:44.204Z,14.30
2022-08-19T13:40:27.022Z,14.30
2022-08-19T13:43:22.305Z,14.30
2022-08-19T13:46:06.275Z,14.30
2022-08-19T13:48:50.556Z,14.30
2022-08-19T13:51:29.176Z,14.30
2022-08-19T13:58:29.906Z,14.30
2022-08-19T14:01:09.643Z,14.20
2022-08-19T14:03:48.064Z,14.30
2022-08-19T14:10:54.575Z,14.30
2022-08-19T14:13:36.767Z,14.20
2022-08-19T14:16:22.046Z,14.20
2022-08-19T14:19:01.273Z,14.20
2022-08-19T14:21:41.600Z,14.20
2022-08-19T14:24:19.387Z,14.20
2022-08-19T14:26:58.261Z,14.20
2022-08-19T14:29:39.333Z,14.20
2022-08-19T14:32:18.774Z,14.20
2022-08-19T14:34:56.471Z,14.20
2022-08-19T14:37:34.784Z,14.20
2022-08-19T14:40:29.849Z,14.20
2022-08-19T14:43:10.557Z,14.20
2022-08-19T14:45:54.800Z,14.10
2022-08-19T14:48:41.509Z,14.10
2022-08-19T14:51:20.236Z,14.10
2022-08-19T14:53:59.056Z,14.10
2022-08-19T14:56:41.153Z,14.00
2022-08-19T14:59:22.371Z,14.00
2022-08-19T15:02:33.258Z,14.10
2022-08-19T15:05:14.999Z,14.10
2022-08-19T15:07:54.661Z,14.10
2022-08-19T15:10:32.709Z,14.00
2022-08-19T15:13:13.211Z,14.00
2022-08-19T15:15:55.998Z,14.00
2022-08-19T15:18:42.295Z,13.90
2022-08-19T15:21:29.754Z,13.90
2022-08-19T15:24:09.619Z,14.00
2022-08-19T15:26:49.979Z,13.90
2022-08-19T15:29:32.774Z,14.00
2022-08-19T15:32:15.781Z,13.90
2022-08-19T15:35:02.451Z,14.00
2022-08-19T15:37:45.834Z,13.90
2022-08-19T15:40:24.964Z,13.90
2022-08-19T15:47:28.286Z,13.80
2022-08-19T15:50:20.419Z,13.80
2022-08-19T15:53:03.916Z,13.90
2022-08-19T15:55:53.843Z,13.90
2022-08-19T15:58:48.847Z,13.80
2022-08-19T16:01:49.936Z,13.80
2022-08-19T16:04:43.970Z,13.80
2022-08-19T16:07:26.069Z,13.80
2022-08-19T16:10:26.298Z,13.80
2022-08-19T16:13:05.018Z,13.90
2022-08-19T16:15:46.366Z,13.80
2022-08-19T16:18:26.984Z,13.80
2022-08-19T16:21:10.288Z,13.70
2022-08-19T16:32:32.687Z,13.60
2022-08-19T16:35:13.148Z,13.60
2022-08-19T16:37:52.383Z,13.70
2022-08-19T16:40:32.231Z,13.70
2022-08-19T16:43:13.507Z,13.70
2022-08-19T16:45:51.921Z,13.70
2022-08-19T16:48:35.149Z,13.60
2022-08-19T16:51:16.020Z,13.70
2022-08-19T16:53:57.470Z,13.60
2022-08-19T17:00:59.452Z,13.60
2022-08-19T17:08:03.649Z,13.50
2022-08-19T17:10:48.820Z,13.50
2022-08-19T17:13:41.463Z,13.40
2022-08-19T17:25:06.723Z,13.30
2022-08-19T17:27:46.468Z,13.30
2022-08-19T17:34:46.232Z,13.30
2022-08-19T17:37:24.896Z,13.20
2022-08-19T17:40:06.408Z,13.30
2022-08-19T17:42:45.030Z,13.30
2022-08-19T17:45:24.266Z,13.30
2022-08-19T17:56:47.276Z,13.20
2022-08-19T17:59:25.901Z,13.10
2022-08-19T18:02:10.079Z,13.10
2022-08-19T18:04:48.893Z,13.10
2022-08-19T18:07:28.093Z,13.10
2022-08-19T18:10:07.129Z,13.00
2022-08-19T18:12:48.938Z,13.00
2022-08-19T18:19:49.898Z,13.00
2022-08-19T18:22:38.711Z,12.90
2022-08-19T18:25:25.197Z,12.90
2022-08-19T18:28:08.187Z,12.90
2022-08-19T18:30:46.189Z,12.90
2022-08-19T18:37:44.993Z,12.90
2022-08-19T18:44:59.865Z,12.90
2022-08-19T18:47:53.719Z,13.30
2022-08-19T18:50:31.985Z,12.90
2022-08-19T18:53:12.444Z,12.90
2022-08-19T18:55:51.569Z,13.00
2022-08-19T19:02:53.355Z,13.00
2022-08-19T19:05:31.971Z,13.00
2022-08-19T19:08:11.308Z,13.00
2022-08-19T19:15:10.955Z,13.00
2022-08-19T19:17:50.928Z,13.00
2022-08-19T19:20:36.148Z,13.00
2022-08-19T20:58:59.842Z,13.90
2022-08-19T21:01:39.205Z,14.20
2022-08-19T21:04:18.230Z,14.30
2022-08-19T21:06:59.515Z,14.30
2022-08-19T21:09:37.926Z,14.30
2022-08-19T21:12:20.364Z,14.30
2022-08-19T21:15:03.480Z,14.30
2022-08-19T21:17:46.070Z,14.40
2022-08-19T21:20:25.103Z,14.60
2022-08-19T21:23:09.347Z,14.70
2022-08-19T21:25:54.539Z,14.80
2022-08-19T21:28:36.434Z,15.00
2022-08-19T21:31:18.537Z,15.20
2022-08-19T21:54:05.871Z,16.50
2022-08-19T21:56:46.134Z,16.50
2022-08-19T21:59:28.431Z,16.60
2022-08-19T22:05:02.075Z,16.40
2022-08-19T22:07:41.647Z,16.50
2022-08-19T22:10:27.945Z,16.40
2022-08-19T22:13:12.711Z,16.30
2022-08-19T22:15:57.941Z,16.30
2022-08-19T22:18:36.548Z,15.80
2022-08-19T22:21:15.679Z,16.30
2022-08-19T22:24:18.982Z,16.20
2022-08-19T22:27:08.608Z,16.20
2022-08-19T22:29:52.325Z,16.20
2022-08-19T22:32:39.600Z,16.30
2022-08-19T22:35:22.512Z,16.20
2022-08-19T22:38:05.349Z,16.20
2022-08-19T22:40:50.568Z,16.30
2022-08-19T22:46:19.534Z,16.20
2022-08-19T22:49:04.806Z,16.20
2022-08-19T22:51:58.890Z,16.30
2022-08-19T22:54:41.419Z,16.40
2022-08-19T22:57:21.761Z,16.50
2022-08-19T23:00:12.365Z,16.60
2022-08-19T23:02:59.815Z,16.70
2022-08-19T23:05:42.459Z,16.90
2022-08-19T23:08:22.353Z,16.90
2022-08-19T23:11:07.454Z,17.00
2022-08-19T23:13:50.747Z,17.10
2022-08-19T23:16:32.041Z,17.10
2022-08-19T23:19:12.383Z,17.20
2022-08-19T23:21:52.374Z,17.30
2022-08-19T23:24:33.920Z,17.50
2022-08-19T23:27:33.336Z,17.70
2022-08-19T23:30:26.895Z,17.80
2022-08-19T23:33:12.921Z,17.90
2022-08-19T23:40:12.532Z,18.10
2022-08-19T23:51:32.875Z,18.40
2022-08-19T23:54:43.477Z,18.50
2022-08-19T23:57:35.632Z,18.50
